Flight Number: AVA1116 Duration: 1:45
Departure: Oslo Gardermoen (ENGM) at 11:45 Distance: 617.319 Nm
Arrival: Frankfurt am Main (EDDF) at 13:30 Equipment: B737

Weather Information
Oslo / Gardermoen, Norway (ENGM) 60-12N 011-05E 204M Jun 19, 2024 - 08:20 AM EDT / 2024.06.19 1220 UTC
Wind: from the N (360 degrees) at 5 MPH (4 KT) (direction variable):0
Visibility: greater than 7 mile(s):0
Sky conditions: mostly cloudy Weather: light rain showers; Cumulonimbus clouds observed Temperature: 60 F (16 C) Dew Point: 50 F (10 C) Relative Humidity: 67% Pressure (altimeter): 29.80 in. Hg (1009 hPa)
ob: ENGM 191220Z 36004KT 330V040 9999 -SHRA FEW019CB SCT024 BKN070 16/10 Q1009 NOSIG cycle: 12
Sunrise: 01:56 Sunset: 20:37 (UTC)

Frankfurt / M-Flughafen, Germany (EDDF) 50-03N 008-36E 113M Jun 19, 2024 - 08:20 AM EDT / 2024.06.19 1220 UTC
Wind: from the NNE (020 degrees) at 12 MPH (10 KT):0
Visibility: greater than 7 mile(s):0
Sky conditions: mostly cloudy Temperature: 64 F (18 C) Dew Point: 57 F (14 C) Relative Humidity: 77% Pressure (altimeter): 30.03 in. Hg (1017 hPa)
ob: EDDF 191220Z AUTO 02010KT 9999 SCT012 BKN027 18/14 Q1017 TEMPO BKN012 cycle: 12
Sunrise: 03:20 Sunset: 19:34 (UTC)

TAF:2024/06/19 12:28 TAF EDDF 191100Z 1912/2018 01008KT 9999 BKN015 TEMPO 1912/1914 2000 RA BKN014 BECMG 1914/1917 SCT015 PROB30 TEMPO 1921/2004 3000 BR BECMG 2006/2008 07008KT PROB40 TEMPO 2013/2016 4000 SHRA BKN020CB

Previous Pireps for this route
Date Flightnr Aircraft Flight time Fuel used Landing rate On time
2017-06-21AVA1116B73701.4814584-181Yes
2017-10-03AVA1116B7373.0281490No
2017-11-12AVA1116B7371.50124000No
2017-12-27AVX9737B73702.5012798-187Charter
2018-12-16AVA1116B7371.55165000No
(pireps marked green are flown by you)

Route map